Saint Francis, Minnesota
Current Conditions -  °F | °C
As of 8:56 AM on Thursday 23 Oct 2014 (Local Time) from KCBG Reporting Station
Haze Haze  
Wind Chill: 54°   Ceiling: 200
Heat Index: 54°   Visibility: 0.5mi
Dew Point: 46°   Wind: 3mph
Humidity: 77%   Direction: 170°S
Pressure: 29.97"   Gusts: NA
Location:  45.39°N, 93.36°W
Report Text: KCBG 231356Z AUTO 17003KT 1/2SM HZ OVC002 12/08 A2997 RMK AO2
Loading
Personal Weather Stations






























Interactive Weather Map
Tropical Storm Tracking
New forecast layout! Learn more

10-Day Weather Forecast

Advertisements
Track Severe Weather on mobile